createdAt,value
2019-01-05T00:00:36.956Z,128.57
2019-01-05T00:03:16.059Z,124.13
2019-01-05T00:05:46.028Z,116.70
2019-01-05T00:08:21.911Z,126.57
2019-01-05T00:11:08.801Z,122.97
2019-01-05T00:13:48.427Z,116.80
2019-01-05T00:16:34.494Z,110.70
2019-01-05T00:19:04.619Z,120.37
2019-01-05T00:21:47.118Z,127.53
2019-01-05T00:24:23.059Z,116.40
2019-01-05T00:26:56.795Z,120.90
2019-01-05T00:29:32.579Z,120.23
2019-01-05T00:32:31.006Z,133.90
2019-01-05T00:35:07.166Z,135.07
2019-01-05T00:37:37.872Z,116.07
2019-01-05T00:40:17.059Z,124.10
2019-01-05T00:42:45.532Z,121.97
2019-01-05T00:45:32.735Z,119.90
2019-01-05T00:48:18.979Z,110.13
2019-01-05T00:51:05.535Z,111.43
2019-01-05T00:53:39.143Z,112.33
2019-01-05T00:56:16.617Z,117.70
2019-01-05T00:58:49.737Z,114.23
2019-01-05T01:01:36.671Z,126.33
2019-01-05T01:04:15.600Z,110.17
2019-01-05T01:06:45.555Z,111.40
2019-01-05T01:09:15.478Z,115.87
2019-01-05T01:11:48.188Z,107.80
2019-01-05T01:14:33.979Z,114.33
2019-01-05T01:17:19.104Z,113.20
2019-01-05T01:19:58.382Z,111.20
2019-01-05T01:22:28.994Z,106.77
2019-01-05T01:25:10.652Z,112.90
2019-01-05T01:27:43.284Z,107.23
2019-01-05T01:30:19.450Z,108.03
2019-01-05T01:33:07.059Z,107.67
2019-01-05T01:35:53.375Z,110.47
2019-01-05T01:38:43.976Z,105.40
2019-01-05T01:41:32.610Z,106.57
2019-01-05T01:44:05.036Z,98.60
2019-01-05T01:46:51.486Z,106.67
2019-01-05T01:49:24.472Z,106.97
2019-01-05T01:52:11.156Z,112.40
2019-01-05T01:54:57.415Z,109.33
2019-01-05T01:57:31.108Z,104.40
2019-01-05T02:00:19.240Z,110.33
2019-01-05T02:02:50.842Z,110.37
2019-01-05T02:05:27.863Z,108.20
2019-01-05T02:07:59.508Z,114.07
2019-01-05T02:10:39.820Z,104.83
2019-01-05T02:13:27.498Z,109.87
2019-01-05T02:16:16.981Z,103.47
2019-01-05T02:18:55.920Z,100.47
2019-01-05T02:22:08.451Z,115.10
2019-01-05T02:24:56.281Z,105.67
2019-01-05T02:27:53.221Z,101.23
2019-01-05T02:30:46.912Z,102.87
2019-01-05T02:34:02.052Z,104.83
2019-01-05T02:37:02.241Z,112.33
2019-01-05T02:39:46.957Z,107.03
2019-01-05T02:42:31.687Z,109.90
2019-01-05T02:45:30.502Z,114.90
2019-01-05T02:48:52.395Z,106.23
2019-01-05T02:51:43.212Z,108.63
2019-01-05T02:54:36.026Z,112.80
2019-01-05T02:57:38.698Z,114.67
2019-01-05T03:00:40.602Z,105.20
2019-01-05T03:03:31.231Z,113.97
2019-01-05T03:06:22.238Z,105.33
2019-01-05T03:09:14.749Z,113.10
2019-01-05T03:12:02.927Z,108.53
2019-01-05T03:15:09.809Z,112.50
2019-01-05T03:18:03.831Z,108.17
2019-01-05T03:20:42.673Z,109.33
2019-01-05T03:23:42.175Z,116.10
2019-01-05T03:26:52.222Z,109.63
2019-01-05T03:30:07.782Z,95.93
2019-01-05T03:32:46.714Z,106.73
2019-01-05T03:35:59.802Z,110.63
2019-01-05T03:38:41.835Z,106.20
2019-01-05T03:41:37.695Z,109.33
2019-01-05T03:44:36.234Z,108.87
2019-01-05T03:47:27.134Z,111.10
2019-01-05T03:50:19.782Z,112.00
2019-01-05T03:53:23.355Z,111.53
2019-01-05T03:56:29.629Z,115.67
2019-01-05T03:59:08.513Z,118.00
2019-01-05T04:02:19.054Z,125.93
2019-01-05T04:05:10.980Z,112.40
2019-01-05T04:08:04.339Z,119.87
2019-01-05T04:11:25.452Z,124.73
2019-01-05T04:14:14.918Z,126.47
2019-01-05T04:16:56.673Z,117.93
2019-01-05T04:19:57.891Z,125.47
2019-01-05T04:22:59.054Z,122.63
2019-01-05T04:25:57.807Z,116.93
2019-01-05T04:28:58.165Z,119.97
2019-01-05T04:31:52.986Z,129.93
2019-01-05T04:34:45.469Z,120.50
2019-01-05T04:37:41.013Z,119.83
2019-01-05T04:40:16.767Z,121.10
2019-01-05T04:43:04.676Z,128.10
2019-01-05T04:46:03.166Z,124.17
2019-01-05T04:48:41.777Z,126.90
2019-01-05T04:51:53.898Z,129.83
2019-01-05T04:54:39.293Z,121.80
2019-01-05T04:57:40.562Z,137.57
2019-01-05T05:00:33.373Z,135.70
2019-01-05T05:03:40.086Z,135.77
2019-01-05T05:06:48.033Z,118.63
2019-01-05T05:09:45.416Z,122.90
2019-01-05T05:12:42.697Z,134.27
2019-01-05T05:15:49.282Z,124.80
2019-01-05T05:18:56.734Z,139.20
2019-01-05T05:22:00.454Z,143.67
2019-01-05T05:25:12.946Z,136.40
2019-01-05T05:28:17.479Z,146.10
2019-01-05T05:31:30.052Z,136.23
2019-01-05T05:34:35.669Z,131.37
2019-01-05T05:37:34.516Z,134.87
2019-01-05T05:40:54.126Z,138.27
2019-01-05T05:43:53.077Z,124.97
2019-01-05T05:46:55.998Z,145.43
2019-01-05T05:49:43.426Z,138.13
2019-01-05T05:52:51.145Z,152.43
2019-01-05T05:55:45.251Z,149.87
2019-01-05T05:58:40.580Z,143.80
2019-01-05T06:01:53.242Z,173.70
2019-01-05T06:05:07.711Z,145.33
2019-01-05T06:08:11.597Z,130.10
2019-01-05T06:11:06.066Z,137.57
2019-01-05T06:14:14.729Z,155.43
2019-01-05T06:17:19.861Z,172.20
2019-01-05T06:20:17.330Z,130.80
2019-01-05T06:23:05.883Z,131.67
2019-01-05T06:25:54.027Z,160.57
2019-01-05T06:29:06.949Z,145.17
2019-01-05T06:32:19.445Z,133.00
2019-01-05T06:35:28.716Z,137.00
2019-01-05T06:38:33.053Z,130.50
2019-01-05T06:41:34.686Z,151.13
2019-01-05T06:44:22.805Z,131.70
2019-01-05T06:47:29.349Z,141.47
2019-01-05T06:50:21.779Z,138.23
2019-01-05T06:53:06.943Z,124.40
2019-01-05T06:55:59.390Z,149.93
2019-01-05T06:59:00.689Z,151.53
2019-01-05T07:02:13.158Z,141.43
2019-01-05T07:05:22.394Z,136.93
2019-01-05T07:08:30.302Z,148.30
2019-01-05T07:11:24.458Z,134.07
2019-01-05T07:14:33.827Z,135.83
2019-01-05T07:17:41.912Z,128.57
2019-01-05T07:20:38.036Z,201.43
2019-01-05T07:23:47.526Z,125.97
2019-01-05T07:26:54.069Z,125.80
2019-01-05T07:29:56.332Z,128.10
2019-01-05T07:32:38.204Z,126.07
2019-01-05T07:35:35.313Z,127.33
2019-01-05T07:38:38.720Z,130.17
2019-01-05T07:41:42.152Z,126.67
2019-01-05T07:44:33.070Z,113.33
2019-01-05T07:47:06.193Z,128.23
2019-01-05T07:50:15.602Z,125.60
2019-01-05T07:53:24.988Z,133.20
2019-01-05T07:56:39.147Z,118.73
2019-01-05T07:59:17.820Z,110.20
2019-01-05T08:02:25.350Z,114.23
2019-01-05T08:05:25.500Z,98.73
2019-01-05T08:08:26.764Z,144.83
2019-01-05T08:11:27.881Z,100.57
2019-01-05T08:14:33.293Z,95.37
2019-01-05T08:17:28.800Z,90.60
2019-01-05T08:20:48.702Z,103.73
2019-01-05T08:23:39.901Z,87.60
2019-01-05T08:26:55.680Z,95.23
2019-01-05T08:30:05.126Z,88.53
2019-01-05T08:33:01.141Z,98.27
2019-01-05T08:36:09.566Z,94.60
2019-01-05T08:39:18.435Z,97.87
2019-01-05T08:42:24.629Z,103.13
2019-01-05T08:45:39.932Z,113.70
2019-01-05T08:48:50.755Z,100.40
2019-01-05T08:51:32.643Z,105.03
2019-01-05T08:54:11.606Z,131.30
2019-01-05T08:57:06.990Z,112.03
2019-01-05T08:59:49.019Z,113.63
2019-01-05T09:03:12.067Z,119.73
2019-01-05T09:05:57.100Z,112.87
2019-01-05T09:08:48.175Z,109.50
2019-01-05T09:11:38.966Z,114.20
2019-01-05T09:14:30.621Z,111.03
2019-01-05T09:17:35.557Z,111.10
2019-01-05T09:20:17.230Z,103.67
2019-01-05T09:23:08.466Z,113.00
2019-01-05T09:25:50.246Z,108.90
2019-01-05T09:28:57.838Z,105.47
2019-01-05T09:32:19.353Z,106.93
2019-01-05T09:34:52.767Z,91.47
2019-01-05T09:38:11.005Z,108.70
2019-01-05T09:41:29.988Z,100.87
2019-01-05T09:44:50.809Z,94.93
2019-01-05T09:47:44.469Z,106.10
2019-01-05T09:50:54.002Z,108.40
2019-01-05T09:54:06.392Z,109.27
2019-01-05T09:56:50.927Z,97.67
2019-01-05T09:59:48.433Z,107.93
2019-01-05T10:02:48.682Z,103.90
2019-01-05T10:05:46.554Z,111.37
2019-01-05T10:08:54.743Z,117.40
2019-01-05T10:11:43.978Z,103.23
2019-01-05T10:14:50.597Z,98.70
2019-01-05T10:17:54.604Z,110.67
2019-01-05T10:21:03.966Z,86.57
2019-01-05T10:24:05.150Z,112.03
2019-01-05T10:27:12.847Z,88.17
2019-01-05T10:30:25.142Z,84.47
2019-01-05T10:33:32.192Z,92.93
2019-01-05T10:36:44.986Z,92.80
2019-01-05T10:39:37.782Z,98.70
2019-01-05T10:42:47.049Z,88.10
2019-01-05T10:45:40.871Z,76.87
2019-01-05T10:48:31.975Z,77.47
2019-01-05T10:51:16.775Z,83.77
2019-01-05T10:54:15.273Z,93.63
2019-01-05T10:57:32.025Z,90.03
2019-01-05T11:00:36.972Z,90.87
2019-01-05T11:03:18.980Z,113.73
2019-01-05T11:06:21.020Z,90.90
2019-01-05T11:09:28.964Z,86.83
2019-01-05T11:12:17.251Z,92.17
2019-01-05T11:15:14.438Z,96.10
2019-01-05T11:18:11.533Z,92.80
2019-01-05T11:21:05.827Z,101.90
2019-01-05T11:23:47.923Z,85.80
2019-01-05T11:26:39.310Z,89.97
2019-01-05T11:29:32.278Z,91.43
2019-01-05T11:32:23.149Z,80.17
2019-01-05T11:35:24.620Z,87.63
2019-01-05T11:38:40.272Z,98.37
2019-01-05T11:41:34.533Z,146.47
2019-01-05T11:44:22.638Z,87.07
2019-01-05T11:47:14.159Z,82.00
2019-01-05T11:49:56.172Z,84.43
2019-01-05T11:53:04.356Z,81.23
2019-01-05T11:56:27.435Z,82.40
2019-01-05T11:59:41.296Z,82.10
2019-01-05T12:02:42.855Z,95.47
2019-01-05T12:05:41.460Z,89.77
2019-01-05T12:08:45.949Z,92.23
2019-01-05T12:11:56.842Z,83.33
2019-01-05T12:15:01.008Z,85.90
2019-01-05T12:18:01.247Z,83.17
2019-01-05T12:21:14.838Z,90.80
2019-01-05T12:24:16.457Z,92.33
2019-01-05T12:27:35.168Z,97.07
2019-01-05T12:30:47.465Z,86.57
2019-01-05T12:33:41.628Z,129.07
2019-01-05T12:36:38.413Z,96.37
2019-01-05T12:39:19.903Z,96.10
2019-01-05T12:42:22.056Z,94.30
2019-01-05T12:45:18.146Z,87.97
2019-01-05T12:48:10.828Z,95.37
2019-01-05T12:50:52.624Z,86.77
2019-01-05T12:53:57.606Z,82.50
2019-01-05T12:57:00.333Z,86.97
2019-01-05T12:59:55.737Z,82.67
2019-01-05T13:02:47.007Z,82.53
2019-01-05T13:05:34.440Z,83.93
2019-01-05T13:08:38.743Z,96.57
2019-01-05T13:12:00.522Z,81.70
2019-01-05T13:15:16.635Z,76.07
2019-01-05T13:18:08.335Z,75.00
2019-01-05T13:21:23.556Z,78.33
2019-01-05T13:24:34.392Z,76.33
2019-01-05T13:27:19.973Z,81.70
2019-01-05T13:30:12.709Z,81.50
2019-01-05T13:33:06.884Z,84.27
2019-01-05T13:35:51.804Z,88.80
2019-01-05T13:38:33.567Z,93.10
2019-01-05T13:41:52.223Z,88.00
2019-01-05T13:44:46.174Z,84.30
2019-01-05T13:47:44.379Z,86.43
2019-01-05T13:50:38.076Z,85.77
2019-01-05T13:53:19.881Z,89.93
2019-01-05T13:56:11.575Z,98.37
2019-01-05T13:58:44.615Z,87.03
2019-01-05T14:01:26.557Z,91.63
2019-01-05T14:04:12.368Z,97.10
2019-01-05T14:06:45.265Z,86.07
2019-01-05T14:09:24.375Z,93.53
2019-01-05T14:11:54.698Z,96.03
2019-01-05T14:14:36.842Z,92.20
2019-01-05T14:17:09.498Z,83.07
2019-01-05T14:19:39.687Z,87.07
2019-01-05T14:22:19.041Z,92.93
2019-01-05T14:25:00.637Z,94.97
2019-01-05T14:27:42.690Z,84.10
2019-01-05T14:30:15.434Z,88.07
2019-01-05T14:32:45.375Z,89.17
2019-01-05T14:35:18.075Z,87.00
2019-01-05T14:37:53.843Z,90.90
2019-01-05T14:40:39.895Z,93.43
2019-01-05T14:43:26.339Z,88.57
2019-01-05T14:46:15.064Z,93.43
2019-01-05T14:49:02.875Z,85.37
2019-01-05T14:51:35.888Z,87.10
2019-01-05T14:54:22.004Z,96.00
2019-01-05T14:56:54.643Z,88.87
2019-01-05T14:59:24.618Z,93.90
2019-01-05T15:02:03.499Z,93.30
2019-01-05T15:04:36.367Z,126.40
2019-01-05T15:07:06.299Z,94.67
2019-01-05T15:09:52.630Z,101.73
2019-01-05T15:12:22.559Z,91.33
2019-01-05T15:15:10.853Z,88.17
2019-01-05T15:17:58.607Z,116.17
2019-01-05T15:20:34.218Z,90.53
2019-01-05T15:23:22.662Z,96.37
2019-01-05T15:25:52.619Z,89.63
2019-01-05T15:28:38.726Z,130.53
2019-01-05T15:31:08.672Z,91.37
2019-01-05T15:33:47.780Z,108.27
2019-01-05T15:36:23.661Z,96.67
2019-01-05T15:38:53.850Z,103.67
2019-01-05T15:41:23.791Z,104.83
2019-01-05T15:44:12.309Z,99.70
2019-01-05T15:46:54.398Z,94.47
2019-01-05T15:49:40.830Z,97.53
2019-01-05T15:52:11.065Z,94.63
2019-01-05T15:54:46.977Z,103.07
2019-01-05T15:57:16.919Z,96.63
2019-01-05T16:00:05.171Z,98.07
2019-01-05T16:02:37.756Z,95.23
2019-01-05T16:05:23.859Z,127.43
2019-01-05T16:08:10.018Z,108.37
2019-01-05T16:10:55.842Z,97.97
2019-01-05T16:13:31.500Z,93.53
2019-01-05T16:16:17.577Z,102.33
2019-01-05T16:19:04.135Z,96.00
2019-01-05T16:21:46.072Z,98.83
2019-01-05T16:24:32.231Z,94.63
2019-01-05T16:27:02.159Z,96.53
2019-01-05T16:29:50.454Z,113.27
2019-01-05T16:32:36.866Z,97.10
2019-01-05T16:35:25.776Z,95.50
2019-01-05T16:38:01.507Z,94.97
2019-01-05T16:40:46.702Z,95.43
2019-01-05T16:43:16.632Z,92.27
2019-01-05T16:45:49.081Z,100.17
2019-01-05T16:48:31.104Z,96.53
2019-01-05T16:51:04.078Z,156.03
2019-01-05T16:53:49.889Z,100.23
2019-01-05T16:56:28.923Z,109.27
2019-01-05T16:59:04.746Z,103.37
2019-01-05T17:01:34.690Z,92.90
2019-01-05T17:04:21.239Z,100.63
2019-01-05T17:07:07.535Z,98.20
2019-01-05T17:09:54.405Z,93.63
2019-01-05T17:12:36.028Z,151.87
2019-01-05T17:15:06.486Z,101.50
2019-01-05T17:17:45.725Z,95.37
2019-01-05T17:20:24.564Z,98.80
2019-01-05T17:23:09.129Z,114.63
2019-01-05T17:25:54.642Z,126.83
2019-01-05T17:28:27.317Z,98.67
2019-01-05T17:31:02.743Z,100.93
2019-01-05T17:33:44.643Z,103.37
2019-01-05T17:36:14.845Z,96.07
2019-01-05T17:38:47.582Z,112.57
2019-01-05T17:41:17.511Z,96.57
2019-01-05T17:44:03.890Z,102.40
2019-01-05T17:46:48.714Z,98.07
2019-01-05T17:49:30.998Z,103.87
2019-01-05T17:52:00.939Z,115.53
2019-01-05T17:54:31.174Z,93.73
2019-01-05T17:57:03.537Z,107.63
2019-01-05T17:59:39.613Z,131.23
2019-01-05T18:02:16.458Z,97.60
2019-01-05T18:05:03.142Z,99.33
2019-01-05T18:07:41.760Z,94.00
2019-01-05T18:10:14.118Z,96.27
2019-01-05T18:12:56.050Z,91.97
2019-01-05T18:15:35.205Z,92.07
2019-01-05T18:18:11.408Z,96.77
2019-01-05T18:20:41.362Z,112.63
2019-01-05T18:23:27.417Z,96.77
2019-01-05T18:26:13.527Z,99.80
2019-01-05T18:28:43.776Z,97.07
2019-01-05T18:31:29.550Z,94.67
2019-01-05T18:34:15.748Z,82.13
2019-01-05T18:36:48.434Z,87.20
2019-01-05T18:39:27.344Z,89.50
2019-01-05T18:42:03.139Z,96.57
2019-01-05T18:44:49.525Z,87.43
2019-01-05T18:47:19.420Z,97.37
2019-01-05T18:49:52.302Z,87.20
2019-01-05T18:52:25.218Z,87.60
2019-01-05T18:55:10.167Z,90.17
2019-01-05T18:57:58.603Z,122.63
2019-01-05T19:00:44.961Z,79.20
2019-01-05T19:03:15.228Z,91.77
2019-01-05T19:06:03.317Z,94.27
2019-01-05T19:08:50.033Z,98.87
2019-01-05T19:11:28.947Z,91.57
2019-01-05T19:14:11.159Z,94.80
2019-01-05T19:16:49.810Z,85.20
2019-01-05T19:19:23.263Z,93.73
2019-01-05T19:22:01.661Z,93.53
2019-01-05T19:24:47.727Z,89.73
2019-01-05T19:30:26.963Z,83.97
2019-01-05T19:36:03.702Z,102.53
2019-01-05T19:38:49.490Z,92.63
2019-01-05T19:41:19.639Z,91.77
2019-01-05T19:43:52.422Z,85.97
2019-01-05T19:46:28.630Z,86.70
2019-01-05T19:48:59.160Z,94.57
2019-01-05T19:51:44.073Z,91.60
2019-01-05T19:54:30.072Z,99.10
2019-01-05T19:57:00.231Z,85.73
2019-01-05T19:59:46.515Z,88.07
2019-01-05T20:02:16.453Z,89.73
2019-01-05T20:05:01.019Z,91.67
2019-01-05T20:07:43.222Z,95.50
2019-01-05T20:10:19.250Z,95.70
2019-01-05T20:12:56.111Z,104.23
2019-01-05T20:15:42.355Z,91.23
2019-01-05T20:18:20.801Z,97.53
2019-01-05T20:21:09.043Z,102.10
2019-01-05T20:23:44.518Z,95.80
2019-01-05T20:26:20.511Z,125.83
2019-01-05T20:28:56.476Z,102.03
2019-01-05T20:31:38.480Z,102.67
2019-01-05T20:34:08.438Z,92.10
2019-01-05T20:36:38.359Z,97.47
2019-01-05T20:39:11.953Z,102.67
2019-01-05T20:41:58.190Z,101.00
2019-01-05T20:44:37.082Z,99.50
2019-01-05T20:47:24.844Z,94.00
2019-01-05T20:49:54.861Z,105.97
2019-01-05T20:52:24.801Z,103.47
2019-01-05T20:54:57.710Z,116.50
2019-01-05T20:57:30.385Z,107.73
2019-01-05T21:00:16.429Z,105.87
2019-01-05T21:02:52.371Z,90.70
2019-01-05T21:05:31.115Z,99.13
2019-01-05T21:08:16.920Z,97.13
2019-01-05T21:11:05.151Z,98.57
2019-01-05T21:13:43.677Z,94.67
2019-01-05T21:16:13.593Z,89.20
2019-01-05T21:19:00.091Z,100.20
2019-01-05T21:21:36.360Z,98.20
2019-01-05T21:24:06.301Z,96.00
2019-01-05T21:26:36.229Z,89.43
2019-01-05T21:29:06.183Z,100.93
2019-01-05T21:31:41.664Z,105.67
2019-01-05T21:34:11.602Z,95.97
2019-01-05T21:36:54.065Z,98.77
2019-01-05T21:39:26.749Z,93.83
2019-01-05T21:42:08.396Z,92.13
2019-01-05T21:44:56.213Z,97.13
2019-01-05T21:47:42.289Z,86.77
2019-01-05T21:50:28.872Z,104.87
2019-01-05T21:52:58.797Z,91.93
2019-01-05T21:55:31.836Z,92.63
2019-01-05T21:58:13.904Z,91.13
2019-01-05T22:00:59.038Z,86.50
2019-01-05T22:03:35.304Z,89.80
2019-01-05T22:06:07.945Z,85.47
2019-01-05T22:08:52.994Z,88.27
2019-01-05T22:11:26.049Z,88.40
2019-01-05T22:14:02.016Z,90.10
2019-01-05T22:16:47.590Z,93.33
2019-01-05T22:19:29.991Z,87.67
2019-01-05T22:21:59.936Z,93.57
2019-01-05T22:24:45.219Z,87.87
2019-01-05T22:27:17.820Z,82.07
2019-01-05T22:29:56.970Z,78.80
2019-01-05T22:32:39.012Z,129.03
2019-01-05T22:35:09.207Z,81.47
2019-01-05T22:37:39.171Z,80.67
2019-01-05T22:40:26.283Z,79.03
2019-01-05T22:43:02.032Z,99.43
2019-01-05T22:45:31.980Z,75.03
2019-01-05T22:48:05.128Z,80.70
2019-01-05T22:50:50.399Z,71.43
2019-01-05T22:53:38.261Z,72.23
2019-01-05T22:56:17.513Z,71.33
2019-01-05T22:59:05.691Z,70.23
2019-01-05T23:01:35.599Z,69.70
2019-01-05T23:04:05.847Z,66.33
2019-01-05T23:06:45.169Z,64.53
2019-01-05T23:09:27.312Z,63.33
2019-01-05T23:12:13.784Z,61.13
2019-01-05T23:15:00.168Z,59.20
2019-01-05T23:17:42.687Z,65.13
2019-01-05T23:20:12.634Z,55.50
2019-01-05T23:22:51.550Z,57.60
2019-01-05T23:25:24.617Z,62.83
2019-01-05T23:31:15.996Z,55.03
2019-01-05T23:33:55.290Z,56.27
2019-01-05T23:36:41.214Z,56.73
2019-01-05T23:39:22.989Z,54.07
2019-01-05T23:42:08.931Z,51.10
2019-01-05T23:44:55.094Z,50.63
2019-01-05T23:47:27.696Z,57.93
2019-01-05T23:50:13.763Z,47.17
2019-01-05T23:52:53.064Z,47.90
2019-01-05T23:55:22.993Z,48.37
2019-01-05T23:57:56.063Z,47.37
